sensor_id;sensor_type;location;lat;lon;timestamp;P1;durP1;ratioP1;P2;durP2;ratioP2
77733;SDS011;66902;41.720;44.796;2023-11-21T00:00:28;2.30;;;0.40;;
77733;SDS011;66902;41.720;44.796;2023-11-21T00:03:22;0.50;;;0.20;;
77733;SDS011;66902;41.720;44.796;2023-11-21T00:05:58;0.40;;;0.30;;
77733;SDS011;66902;41.720;44.796;2023-11-21T00:08:32;0.70;;;0.50;;
77733;SDS011;66902;41.720;44.796;2023-11-21T00:11:05;1.10;;;0.30;;
77733;SDS011;66902;41.720;44.796;2023-11-21T00:13:40;0.20;;;0.10;;
77733;SDS011;66902;41.720;44.796;2023-11-21T00:16:19;1.70;;;0.20;;
77733;SDS011;66902;41.720;44.796;2023-11-21T00:18:53;0.40;;;0.10;;
77733;SDS011;66902;41.720;44.796;2023-11-21T00:21:26;0.20;;;0.20;;
77733;SDS011;66902;41.720;44.796;2023-11-21T00:24:00;3.10;;;0.30;;
77733;SDS011;66902;41.720;44.796;2023-11-21T00:26:33;0.50;;;0.20;;
77733;SDS011;66902;41.720;44.796;2023-11-21T00:29:08;0.30;;;0.30;;
77733;SDS011;66902;41.720;44.796;2023-11-21T00:31:43;0.40;;;0.20;;
77733;SDS011;66902;41.720;44.796;2023-11-21T00:34:17;0.40;;;0.10;;
77733;SDS011;66902;41.720;44.796;2023-11-21T00:36:52;0.40;;;0.20;;
77733;SDS011;66902;41.720;44.796;2023-11-21T00:39:26;0.10;;;0.10;;
77733;SDS011;66902;41.720;44.796;2023-11-21T00:42:00;0.20;;;0.10;;
77733;SDS011;66902;41.720;44.796;2023-11-21T00:44:35;0.60;;;0.20;;
77733;SDS011;66902;41.720;44.796;2023-11-21T00:47:11;1.40;;;0.20;;
77733;SDS011;66902;41.720;44.796;2023-11-21T00:49:46;0.10;;;0.10;;
77733;SDS011;66902;41.720;44.796;2023-11-21T00:52:20;0.20;;;0.20;;
77733;SDS011;66902;41.720;44.796;2023-11-21T00:54:54;0.40;;;0.10;;
77733;SDS011;66902;41.720;44.796;2023-11-21T00:57:31;0.70;;;0.20;;
77733;SDS011;66902;41.720;44.796;2023-11-21T01:00:07;0.50;;;0.20;;
77733;SDS011;66902;41.720;44.796;2023-11-21T01:02:47;1.20;;;0.20;;
77733;SDS011;66902;41.720;44.796;2023-11-21T01:05:22;0.50;;;0.20;;
77733;SDS011;66902;41.720;44.796;2023-11-21T01:07:57;2.20;;;0.30;;
77733;SDS011;66902;41.720;44.796;2023-11-21T01:10:32;1.00;;;0.40;;
77733;SDS011;66902;41.720;44.796;2023-11-21T01:13:07;0.30;;;0.10;;
77733;SDS011;66902;41.720;44.796;2023-11-21T01:15:42;2.10;;;0.40;;
77733;SDS011;66902;41.720;44.796;2023-11-21T01:18:17;0.70;;;0.30;;
77733;SDS011;66902;41.720;44.796;2023-11-21T01:20:50;0.10;;;0.10;;
77733;SDS011;66902;41.720;44.796;2023-11-21T01:23:24;0.90;;;0.10;;
77733;SDS011;66902;41.720;44.796;2023-11-21T01:25:58;0.30;;;0.20;;
77733;SDS011;66902;41.720;44.796;2023-11-21T01:28:34;0.70;;;0.30;;
77733;SDS011;66902;41.720;44.796;2023-11-21T01:31:07;1.30;;;0.40;;
77733;SDS011;66902;41.720;44.796;2023-11-21T01:33:43;0.20;;;0.20;;
77733;SDS011;66902;41.720;44.796;2023-11-21T01:36:18;0.30;;;0.20;;
77733;SDS011;66902;41.720;44.796;2023-11-21T01:38:52;0.30;;;0.20;;
77733;SDS011;66902;41.720;44.796;2023-11-21T01:41:29;0.40;;;0.20;;
77733;SDS011;66902;41.720;44.796;2023-11-21T01:44:03;2.00;;;0.10;;
77733;SDS011;66902;41.720;44.796;2023-11-21T01:46:39;0.20;;;0.10;;
77733;SDS011;66902;41.720;44.796;2023-11-21T01:49:12;0.70;;;0.30;;
77733;SDS011;66902;41.720;44.796;2023-11-21T01:51:48;0.20;;;0.20;;
77733;SDS011;66902;41.720;44.796;2023-11-21T01:54:23;0.50;;;0.10;;
77733;SDS011;66902;41.720;44.796;2023-11-21T01:57:02;1.50;;;0.20;;
77733;SDS011;66902;41.720;44.796;2023-11-21T01:59:37;3.20;;;0.20;;
77733;SDS011;66902;41.720;44.796;2023-11-21T02:02:12;0.30;;;0.10;;
77733;SDS011;66902;41.720;44.796;2023-11-21T02:04:47;4.20;;;0.20;;
77733;SDS011;66902;41.720;44.796;2023-11-21T02:07:20;3.70;;;0.30;;
77733;SDS011;66902;41.720;44.796;2023-11-21T02:09:54;0.30;;;0.10;;
77733;SDS011;66902;41.720;44.796;2023-11-21T02:12:28;0.30;;;0.20;;
77733;SDS011;66902;41.720;44.796;2023-11-21T02:15:03;0.70;;;0.30;;
77733;SDS011;66902;41.720;44.796;2023-11-21T02:17:45;0.40;;;0.20;;
77733;SDS011;66902;41.720;44.796;2023-11-21T02:22:57;0.50;;;0.20;;
77733;SDS011;66902;41.720;44.796;2023-11-21T02:25:32;1.60;;;0.10;;
77733;SDS011;66902;41.720;44.796;2023-11-21T02:28:07;0.80;;;0.10;;
77733;SDS011;66902;41.720;44.796;2023-11-21T02:30:43;0.40;;;0.20;;
77733;SDS011;66902;41.720;44.796;2023-11-21T02:33:26;0.20;;;0.10;;
77733;SDS011;66902;41.720;44.796;2023-11-21T02:36:00;2.40;;;0.10;;
77733;SDS011;66902;41.720;44.796;2023-11-21T02:38:35;0.90;;;0.10;;
77733;SDS011;66902;41.720;44.796;2023-11-21T02:41:11;0.40;;;0.10;;
77733;SDS011;66902;41.720;44.796;2023-11-21T02:43:46;0.70;;;0.20;;
77733;SDS011;66902;41.720;44.796;2023-11-21T02:46:21;1.10;;;0.30;;
77733;SDS011;66902;41.720;44.796;2023-11-21T02:48:56;0.50;;;0.20;;
77733;SDS011;66902;41.720;44.796;2023-11-21T02:51:29;0.20;;;0.10;;
77733;SDS011;66902;41.720;44.796;2023-11-21T02:54:05;0.80;;;0.30;;
77733;SDS011;66902;41.720;44.796;2023-11-21T02:56:39;0.70;;;0.30;;
77733;SDS011;66902;41.720;44.796;2023-11-21T02:59:14;0.40;;;0.20;;
77733;SDS011;66902;41.720;44.796;2023-11-21T03:01:50;2.40;;;0.20;;
77733;SDS011;66902;41.720;44.796;2023-11-21T03:04:24;0.70;;;0.30;;
77733;SDS011;66902;41.720;44.796;2023-11-21T03:06:58;0.20;;;0.10;;
77733;SDS011;66902;41.720;44.796;2023-11-21T03:09:32;0.60;;;0.10;;
77733;SDS011;66902;41.720;44.796;2023-11-21T03:12:07;0.10;;;0.10;;
77733;SDS011;66902;41.720;44.796;2023-11-21T03:14:42;1.20;;;0.20;;
77733;SDS011;66902;41.720;44.796;2023-11-21T03:17:17;0.40;;;0.20;;
77733;SDS011;66902;41.720;44.796;2023-11-21T03:19:51;1.10;;;0.40;;
77733;SDS011;66902;41.720;44.796;2023-11-21T03:22:27;0.80;;;0.20;;
77733;SDS011;66902;41.720;44.796;2023-11-21T03:25:03;0.70;;;0.40;;
77733;SDS011;66902;41.720;44.796;2023-11-21T03:27:42;0.90;;;0.30;;
77733;SDS011;66902;41.720;44.796;2023-11-21T03:30:17;0.00;;;0.00;;
77733;SDS011;66902;41.720;44.796;2023-11-21T03:32:50;0.70;;;0.10;;
77733;SDS011;66902;41.720;44.796;2023-11-21T03:35:25;2.30;;;0.20;;
77733;SDS011;66902;41.720;44.796;2023-11-21T03:37:59;1.00;;;0.30;;
77733;SDS011;66902;41.720;44.796;2023-11-21T03:40:33;1.00;;;0.40;;
77733;SDS011;66902;41.720;44.796;2023-11-21T03:43:08;0.70;;;0.30;;
77733;SDS011;66902;41.720;44.796;2023-11-21T03:45:41;1.00;;;0.60;;
77733;SDS011;66902;41.720;44.796;2023-11-21T03:48:15;2.80;;;0.60;;
77733;SDS011;66902;41.720;44.796;2023-11-21T03:50:49;0.70;;;0.30;;
77733;SDS011;66902;41.720;44.796;2023-11-21T03:53:23;1.40;;;0.30;;
77733;SDS011;66902;41.720;44.796;2023-11-21T03:55:57;1.40;;;0.30;;
77733;SDS011;66902;41.720;44.796;2023-11-21T03:58:31;0.60;;;0.30;;
77733;SDS011;66902;41.720;44.796;2023-11-21T04:01:07;2.00;;;0.20;;
77733;SDS011;66902;41.720;44.796;2023-11-21T04:03:40;3.80;;;0.20;;
77733;SDS011;66902;41.720;44.796;2023-11-21T04:06:15;2.00;;;0.10;;
77733;SDS011;66902;41.720;44.796;2023-11-21T04:08:50;1.50;;;0.30;;
77733;SDS011;66902;41.720;44.796;2023-11-21T04:11:23;0.80;;;0.30;;
77733;SDS011;66902;41.720;44.796;2023-11-21T04:13:59;0.10;;;0.10;;
77733;SDS011;66902;41.720;44.796;2023-11-21T04:16:33;0.40;;;0.40;;
77733;SDS011;66902;41.720;44.796;2023-11-21T04:19:08;0.20;;;0.10;;
77733;SDS011;66902;41.720;44.796;2023-11-21T04:21:44;0.70;;;0.40;;
77733;SDS011;66902;41.720;44.796;2023-11-21T04:24:18;1.80;;;0.30;;
77733;SDS011;66902;41.720;44.796;2023-11-21T04:26:53;0.40;;;0.20;;
77733;SDS011;66902;41.720;44.796;2023-11-21T04:29:28;1.70;;;0.30;;
77733;SDS011;66902;41.720;44.796;2023-11-21T04:32:03;0.40;;;0.30;;
77733;SDS011;66902;41.720;44.796;2023-11-21T04:34:38;1.10;;;0.40;;
77733;SDS011;66902;41.720;44.796;2023-11-21T04:37:11;1.20;;;0.70;;
77733;SDS011;66902;41.720;44.796;2023-11-21T04:39:45;0.30;;;0.20;;
77733;SDS011;66902;41.720;44.796;2023-11-21T04:42:19;4.50;;;0.80;;
77733;SDS011;66902;41.720;44.796;2023-11-21T04:44:52;1.00;;;0.60;;
77733;SDS011;66902;41.720;44.796;2023-11-21T04:47:25;0.70;;;0.30;;
77733;SDS011;66902;41.720;44.796;2023-11-21T04:49:59;0.60;;;0.50;;
77733;SDS011;66902;41.720;44.796;2023-11-21T04:52:33;0.30;;;0.30;;
77733;SDS011;66902;41.720;44.796;2023-11-21T04:55:07;0.30;;;0.20;;
77733;SDS011;66902;41.720;44.796;2023-11-21T04:57:41;0.40;;;0.20;;
77733;SDS011;66902;41.720;44.796;2023-11-21T05:00:16;0.10;;;0.10;;
77733;SDS011;66902;41.720;44.796;2023-11-21T05:02:51;0.40;;;0.30;;
77733;SDS011;66902;41.720;44.796;2023-11-21T05:05:25;3.00;;;0.80;;
77733;SDS011;66902;41.720;44.796;2023-11-21T05:07:59;2.00;;;1.00;;
77733;SDS011;66902;41.720;44.796;2023-11-21T05:10:33;0.90;;;0.30;;
77733;SDS011;66902;41.720;44.796;2023-11-21T05:13:08;1.60;;;0.30;;
77733;SDS011;66902;41.720;44.796;2023-11-21T05:15:41;5.20;;;3.20;;
77733;SDS011;66902;41.720;44.796;2023-11-21T05:18:15;6.80;;;0.40;;
77733;SDS011;66902;41.720;44.796;2023-11-21T05:20:49;1.40;;;0.60;;
77733;SDS011;66902;41.720;44.796;2023-11-21T05:23:23;3.60;;;1.10;;
77733;SDS011;66902;41.720;44.796;2023-11-21T05:25:57;1.60;;;0.90;;
77733;SDS011;66902;41.720;44.796;2023-11-21T05:28:31;4.10;;;1.30;;
77733;SDS011;66902;41.720;44.796;2023-11-21T05:31:04;2.10;;;0.80;;
77733;SDS011;66902;41.720;44.796;2023-11-21T05:33:46;1.70;;;0.90;;
77733;SDS011;66902;41.720;44.796;2023-11-21T05:36:20;3.50;;;1.00;;
77733;SDS011;66902;41.720;44.796;2023-11-21T05:38:53;5.40;;;0.70;;
77733;SDS011;66902;41.720;44.796;2023-11-21T05:41:27;1.30;;;0.50;;
77733;SDS011;66902;41.720;44.796;2023-11-21T05:44:02;2.50;;;0.70;;
77733;SDS011;66902;41.720;44.796;2023-11-21T05:46:36;3.20;;;1.20;;
77733;SDS011;66902;41.720;44.796;2023-11-21T05:49:10;1.80;;;0.50;;
77733;SDS011;66902;41.720;44.796;2023-11-21T05:51:44;2.20;;;0.50;;
77733;SDS011;66902;41.720;44.796;2023-11-21T05:54:18;1.40;;;0.80;;
77733;SDS011;66902;41.720;44.796;2023-11-21T05:56:54;9.40;;;0.80;;
77733;SDS011;66902;41.720;44.796;2023-11-21T05:59:27;0.80;;;0.40;;
77733;SDS011;66902;41.720;44.796;2023-11-21T06:02:01;3.00;;;0.90;;
77733;SDS011;66902;41.720;44.796;2023-11-21T06:04:35;5.80;;;0.90;;
77733;SDS011;66902;41.720;44.796;2023-11-21T06:07:09;5.90;;;0.40;;
77733;SDS011;66902;41.720;44.796;2023-11-21T06:09:42;2.30;;;0.30;;
77733;SDS011;66902;41.720;44.796;2023-11-21T06:12:15;1.80;;;0.70;;
77733;SDS011;66902;41.720;44.796;2023-11-21T06:14:50;2.20;;;1.40;;
77733;SDS011;66902;41.720;44.796;2023-11-21T06:17:23;7.10;;;1.70;;
77733;SDS011;66902;41.720;44.796;2023-11-21T06:19:58;5.50;;;1.50;;
77733;SDS011;66902;41.720;44.796;2023-11-21T06:22:34;5.20;;;1.40;;
77733;SDS011;66902;41.720;44.796;2023-11-21T06:25:09;7.30;;;1.40;;
77733;SDS011;66902;41.720;44.796;2023-11-21T06:27:43;6.20;;;1.70;;
77733;SDS011;66902;41.720;44.796;2023-11-21T06:30:17;1.10;;;0.50;;
77733;SDS011;66902;41.720;44.796;2023-11-21T06:32:51;1.20;;;0.70;;
77733;SDS011;66902;41.720;44.796;2023-11-21T06:35:26;3.70;;;1.20;;
77733;SDS011;66902;41.720;44.796;2023-11-21T06:38:03;1.80;;;0.70;;
77733;SDS011;66902;41.720;44.796;2023-11-21T06:40:40;2.20;;;1.00;;
77733;SDS011;66902;41.720;44.796;2023-11-21T06:43:14;7.80;;;1.80;;
77733;SDS011;66902;41.720;44.796;2023-11-21T06:45:49;4.00;;;1.10;;
77733;SDS011;66902;41.720;44.796;2023-11-21T06:48:24;7.30;;;2.70;;
77733;SDS011;66902;41.720;44.796;2023-11-21T06:51:00;1.20;;;0.50;;
77733;SDS011;66902;41.720;44.796;2023-11-21T06:53:34;2.80;;;1.90;;
77733;SDS011;66902;41.720;44.796;2023-11-21T06:56:16;2.10;;;1.20;;
77733;SDS011;66902;41.720;44.796;2023-11-21T06:58:50;1.60;;;0.40;;
77733;SDS011;66902;41.720;44.796;2023-11-21T07:01:24;2.30;;;0.60;;
77733;SDS011;66902;41.720;44.796;2023-11-21T07:03:58;1.90;;;0.50;;
77733;SDS011;66902;41.720;44.796;2023-11-21T07:06:31;1.40;;;0.50;;
77733;SDS011;66902;41.720;44.796;2023-11-21T07:09:06;3.60;;;0.80;;
77733;SDS011;66902;41.720;44.796;2023-11-21T07:11:44;3.20;;;0.30;;
77733;SDS011;66902;41.720;44.796;2023-11-21T07:14:18;1.50;;;0.70;;
77733;SDS011;66902;41.720;44.796;2023-11-21T07:16:52;1.60;;;0.70;;
77733;SDS011;66902;41.720;44.796;2023-11-21T07:19:26;2.10;;;0.80;;
77733;SDS011;66902;41.720;44.796;2023-11-21T07:22:00;0.90;;;0.50;;
77733;SDS011;66902;41.720;44.796;2023-11-21T07:24:36;1.40;;;0.70;;
77733;SDS011;66902;41.720;44.796;2023-11-21T07:27:10;3.30;;;0.60;;
77733;SDS011;66902;41.720;44.796;2023-11-21T07:29:44;3.10;;;1.00;;
77733;SDS011;66902;41.720;44.796;2023-11-21T07:32:18;2.20;;;0.70;;
77733;SDS011;66902;41.720;44.796;2023-11-21T07:34:51;10.70;;;0.70;;
77733;SDS011;66902;41.720;44.796;2023-11-21T07:37:27;3.20;;;0.60;;
77733;SDS011;66902;41.720;44.796;2023-11-21T07:40:01;2.90;;;1.50;;
77733;SDS011;66902;41.720;44.796;2023-11-21T07:42:35;9.00;;;0.40;;
77733;SDS011;66902;41.720;44.796;2023-11-21T07:45:09;3.50;;;0.80;;
77733;SDS011;66902;41.720;44.796;2023-11-21T07:47:45;4.00;;;1.40;;
77733;SDS011;66902;41.720;44.796;2023-11-21T07:50:19;1.20;;;0.70;;
77733;SDS011;66902;41.720;44.796;2023-11-21T07:52:55;1.80;;;0.20;;
77733;SDS011;66902;41.720;44.796;2023-11-21T07:55:28;0.80;;;0.30;;
77733;SDS011;66902;41.720;44.796;2023-11-21T07:58:03;0.60;;;0.30;;
77733;SDS011;66902;41.720;44.796;2023-11-21T08:00:36;1.90;;;0.50;;
77733;SDS011;66902;41.720;44.796;2023-11-21T08:03:10;4.50;;;1.00;;
77733;SDS011;66902;41.720;44.796;2023-11-21T08:05:44;2.30;;;0.50;;
77733;SDS011;66902;41.720;44.796;2023-11-21T08:08:19;1.90;;;0.80;;
77733;SDS011;66902;41.720;44.796;2023-11-21T08:10:53;3.10;;;0.90;;
77733;SDS011;66902;41.720;44.796;2023-11-21T08:13:29;1.20;;;0.50;;
77733;SDS011;66902;41.720;44.796;2023-11-21T08:16:02;3.80;;;0.70;;
77733;SDS011;66902;41.720;44.796;2023-11-21T08:18:37;1.60;;;0.40;;
77733;SDS011;66902;41.720;44.796;2023-11-21T08:21:12;1.50;;;0.70;;
77733;SDS011;66902;41.720;44.796;2023-11-21T08:23:45;2.80;;;1.00;;
77733;SDS011;66902;41.720;44.796;2023-11-21T08:26:23;2.20;;;1.00;;
77733;SDS011;66902;41.720;44.796;2023-11-21T08:28:57;2.10;;;1.10;;
77733;SDS011;66902;41.720;44.796;2023-11-21T08:31:30;4.20;;;1.20;;
77733;SDS011;66902;41.720;44.796;2023-11-21T08:34:04;7.60;;;0.80;;
77733;SDS011;66902;41.720;44.796;2023-11-21T08:36:42;3.20;;;0.80;;
77733;SDS011;66902;41.720;44.796;2023-11-21T08:39:15;2.50;;;1.00;;
77733;SDS011;66902;41.720;44.796;2023-11-21T08:41:49;1.00;;;0.50;;
77733;SDS011;66902;41.720;44.796;2023-11-21T08:44:23;3.70;;;0.60;;
77733;SDS011;66902;41.720;44.796;2023-11-21T08:46:57;5.00;;;0.60;;
77733;SDS011;66902;41.720;44.796;2023-11-21T08:49:30;2.40;;;0.40;;
77733;SDS011;66902;41.720;44.796;2023-11-21T08:52:04;6.10;;;0.50;;
77733;SDS011;66902;41.720;44.796;2023-11-21T08:54:37;1.90;;;0.50;;
77733;SDS011;66902;41.720;44.796;2023-11-21T08:57:11;1.10;;;0.30;;
77733;SDS011;66902;41.720;44.796;2023-11-21T08:59:45;2.10;;;0.90;;
77733;SDS011;66902;41.720;44.796;2023-11-21T09:02:18;5.10;;;0.80;;
77733;SDS011;66902;41.720;44.796;2023-11-21T09:04:53;2.20;;;0.80;;
77733;SDS011;66902;41.720;44.796;2023-11-21T09:07:27;6.80;;;0.80;;
77733;SDS011;66902;41.720;44.796;2023-11-21T09:10:00;5.50;;;0.60;;
77733;SDS011;66902;41.720;44.796;2023-11-21T09:12:36;5.50;;;0.90;;
77733;SDS011;66902;41.720;44.796;2023-11-21T09:15:11;1.20;;;0.40;;
77733;SDS011;66902;41.720;44.796;2023-11-21T09:17:45;2.10;;;0.70;;
77733;SDS011;66902;41.720;44.796;2023-11-21T09:20:19;2.60;;;0.70;;
77733;SDS011;66902;41.720;44.796;2023-11-21T09:22:53;1.70;;;0.50;;
77733;SDS011;66902;41.720;44.796;2023-11-21T09:25:26;1.60;;;0.80;;
77733;SDS011;66902;41.720;44.796;2023-11-21T09:28:00;3.30;;;0.40;;
77733;SDS011;66902;41.720;44.796;2023-11-21T09:30:35;3.10;;;0.40;;
77733;SDS011;66902;41.720;44.796;2023-11-21T09:33:08;7.70;;;0.60;;
77733;SDS011;66902;41.720;44.796;2023-11-21T09:35:42;2.40;;;0.40;;
77733;SDS011;66902;41.720;44.796;2023-11-21T09:38:15;2.10;;;0.30;;
77733;SDS011;66902;41.720;44.796;2023-11-21T09:40:49;2.10;;;1.00;;
77733;SDS011;66902;41.720;44.796;2023-11-21T09:43:24;0.80;;;0.40;;
77733;SDS011;66902;41.720;44.796;2023-11-21T09:45:59;3.10;;;0.80;;
77733;SDS011;66902;41.720;44.796;2023-11-21T09:48:35;2.70;;;0.30;;
77733;SDS011;66902;41.720;44.796;2023-11-21T09:51:10;1.00;;;0.50;;
77733;SDS011;66902;41.720;44.796;2023-11-21T09:53:44;3.10;;;1.20;;
77733;SDS011;66902;41.720;44.796;2023-11-21T09:56:19;1.40;;;0.60;;
77733;SDS011;66902;41.720;44.796;2023-11-21T09:58:54;1.00;;;0.60;;
77733;SDS011;66902;41.720;44.796;2023-11-21T10:01:34;9.60;;;1.00;;
77733;SDS011;66902;41.720;44.796;2023-11-21T10:04:09;1.60;;;0.90;;
77733;SDS011;66902;41.720;44.796;2023-11-21T10:06:44;1.10;;;0.70;;
77733;SDS011;66902;41.720;44.796;2023-11-21T10:09:20;7.40;;;0.40;;
77733;SDS011;66902;41.720;44.796;2023-11-21T10:11:54;1.30;;;0.70;;
77733;SDS011;66902;41.720;44.796;2023-11-21T10:14:31;3.40;;;0.80;;
77733;SDS011;66902;41.720;44.796;2023-11-21T10:17:05;0.90;;;0.40;;
77733;SDS011;66902;41.720;44.796;2023-11-21T10:19:41;2.90;;;0.60;;
77733;SDS011;66902;41.720;44.796;2023-11-21T10:22:15;8.30;;;1.50;;
77733;SDS011;66902;41.720;44.796;2023-11-21T10:24:50;2.00;;;1.00;;
77733;SDS011;66902;41.720;44.796;2023-11-21T10:27:24;2.70;;;1.50;;
77733;SDS011;66902;41.720;44.796;2023-11-21T10:30:01;6.00;;;1.10;;
77733;SDS011;66902;41.720;44.796;2023-11-21T10:32:36;3.10;;;0.80;;
77733;SDS011;66902;41.720;44.796;2023-11-21T10:35:11;8.40;;;1.10;;
77733;SDS011;66902;41.720;44.796;2023-11-21T10:37:44;2.20;;;1.20;;
77733;SDS011;66902;41.720;44.796;2023-11-21T10:40:34;2.30;;;1.10;;
77733;SDS011;66902;41.720;44.796;2023-11-21T10:45:45;5.00;;;0.60;;
77733;SDS011;66902;41.720;44.796;2023-11-21T10:48:20;4.20;;;0.90;;
77733;SDS011;66902;41.720;44.796;2023-11-21T10:50:53;2.30;;;0.60;;
77733;SDS011;66902;41.720;44.796;2023-11-21T10:53:30;3.50;;;0.70;;
77733;SDS011;66902;41.720;44.796;2023-11-21T10:56:05;4.50;;;1.00;;
77733;SDS011;66902;41.720;44.796;2023-11-21T10:58:40;1.30;;;0.80;;
77733;SDS011;66902;41.720;44.796;2023-11-21T11:01:14;2.80;;;0.40;;
77733;SDS011;66902;41.720;44.796;2023-11-21T11:03:51;1.20;;;0.60;;
77733;SDS011;66902;41.720;44.796;2023-11-21T11:06:26;0.70;;;0.40;;
77733;SDS011;66902;41.720;44.796;2023-11-21T11:09:00;4.10;;;1.00;;
77733;SDS011;66902;41.720;44.796;2023-11-21T11:11:34;1.50;;;0.60;;
77733;SDS011;66902;41.720;44.796;2023-11-21T11:14:11;2.90;;;0.80;;
77733;SDS011;66902;41.720;44.796;2023-11-21T11:16:50;4.30;;;0.50;;
77733;SDS011;66902;41.720;44.796;2023-11-21T11:19:25;1.50;;;0.70;;
77733;SDS011;66902;41.720;44.796;2023-11-21T11:22:03;1.30;;;0.70;;
77733;SDS011;66902;41.720;44.796;2023-11-21T11:24:52;5.80;;;0.80;;
77733;SDS011;66902;41.720;44.796;2023-11-21T11:27:37;4.20;;;1.10;;
77733;SDS011;66902;41.720;44.796;2023-11-21T11:30:20;4.40;;;1.00;;
77733;SDS011;66902;41.720;44.796;2023-11-21T11:33:04;3.90;;;1.00;;
77733;SDS011;66902;41.720;44.796;2023-11-21T11:35:46;4.30;;;0.70;;
77733;SDS011;66902;41.720;44.796;2023-11-21T11:38:24;2.80;;;0.90;;
77733;SDS011;66902;41.720;44.796;2023-11-21T11:41:01;9.80;;;0.90;;
77733;SDS011;66902;41.720;44.796;2023-11-21T11:43:35;4.10;;;1.30;;
77733;SDS011;66902;41.720;44.796;2023-11-21T11:46:14;5.20;;;1.40;;
77733;SDS011;66902;41.720;44.796;2023-11-21T11:48:55;2.60;;;1.20;;
77733;SDS011;66902;41.720;44.796;2023-11-21T11:51:38;3.60;;;1.30;;
77733;SDS011;66902;41.720;44.796;2023-11-21T11:54:12;5.60;;;1.30;;
77733;SDS011;66902;41.720;44.796;2023-11-21T11:56:47;3.10;;;1.70;;
77733;SDS011;66902;41.720;44.796;2023-11-21T11:59:22;3.40;;;1.50;;
77733;SDS011;66902;41.720;44.796;2023-11-21T12:01:56;2.80;;;1.00;;
77733;SDS011;66902;41.720;44.796;2023-11-21T12:04:31;5.70;;;1.30;;
77733;SDS011;66902;41.720;44.796;2023-11-21T12:07:09;6.50;;;0.90;;
77733;SDS011;66902;41.720;44.796;2023-11-21T12:09:43;5.70;;;1.60;;
77733;SDS011;66902;41.720;44.796;2023-11-21T12:12:17;2.00;;;0.70;;
77733;SDS011;66902;41.720;44.796;2023-11-21T12:14:50;2.00;;;1.60;;
77733;SDS011;66902;41.720;44.796;2023-11-21T12:17:25;4.60;;;1.00;;
77733;SDS011;66902;41.720;44.796;2023-11-21T12:20:03;1.30;;;0.90;;
77733;SDS011;66902;41.720;44.796;2023-11-21T12:22:46;2.80;;;1.00;;
77733;SDS011;66902;41.720;44.796;2023-11-21T12:25:20;1.70;;;0.60;;
77733;SDS011;66902;41.720;44.796;2023-11-21T12:27:55;4.60;;;0.80;;
77733;SDS011;66902;41.720;44.796;2023-11-21T12:30:31;2.70;;;0.90;;
77733;SDS011;66902;41.720;44.796;2023-11-21T12:33:08;2.80;;;0.80;;
77733;SDS011;66902;41.720;44.796;2023-11-21T12:35:48;2.80;;;0.70;;
77733;SDS011;66902;41.720;44.796;2023-11-21T12:38:23;1.40;;;0.90;;
77733;SDS011;66902;41.720;44.796;2023-11-21T12:40:57;1.90;;;0.70;;
77733;SDS011;66902;41.720;44.796;2023-11-21T12:43:30;3.00;;;1.10;;
77733;SDS011;66902;41.720;44.796;2023-11-21T12:46:09;14.80;;;2.00;;
77733;SDS011;66902;41.720;44.796;2023-11-21T12:48:43;4.30;;;1.50;;
77733;SDS011;66902;41.720;44.796;2023-11-21T12:51:19;1.90;;;1.00;;
77733;SDS011;66902;41.720;44.796;2023-11-21T12:53:52;4.50;;;0.80;;
77733;SDS011;66902;41.720;44.796;2023-11-21T12:56:29;1.90;;;0.90;;
77733;SDS011;66902;41.720;44.796;2023-11-21T12:59:03;4.80;;;0.90;;
77733;SDS011;66902;41.720;44.796;2023-11-21T13:01:37;1.20;;;0.60;;
77733;SDS011;66902;41.720;44.796;2023-11-21T13:04:11;3.40;;;0.90;;
77733;SDS011;66902;41.720;44.796;2023-11-21T13:06:45;2.00;;;0.70;;
77733;SDS011;66902;41.720;44.796;2023-11-21T13:09:18;13.80;;;1.10;;
77733;SDS011;66902;41.720;44.796;2023-11-21T13:11:52;2.20;;;0.70;;
77733;SDS011;66902;41.720;44.796;2023-11-21T13:14:34;4.00;;;1.30;;
77733;SDS011;66902;41.720;44.796;2023-11-21T13:17:08;8.80;;;1.60;;
77733;SDS011;66902;41.720;44.796;2023-11-21T13:19:42;4.00;;;1.80;;
77733;SDS011;66902;41.720;44.796;2023-11-21T13:22:17;4.40;;;1.40;;
77733;SDS011;66902;41.720;44.796;2023-11-21T13:24:51;5.20;;;1.30;;
77733;SDS011;66902;41.720;44.796;2023-11-21T13:27:24;6.40;;;1.50;;
77733;SDS011;66902;41.720;44.796;2023-11-21T13:29:59;4.60;;;1.00;;
77733;SDS011;66902;41.720;44.796;2023-11-21T13:32:33;2.00;;;0.60;;
77733;SDS011;66902;41.720;44.796;2023-11-21T13:35:07;1.50;;;1.00;;
77733;SDS011;66902;41.720;44.796;2023-11-21T13:37:51;4.70;;;1.60;;
77733;SDS011;66902;41.720;44.796;2023-11-21T13:40:26;3.60;;;0.80;;
77733;SDS011;66902;41.720;44.796;2023-11-21T13:43:00;1.80;;;0.90;;
77733;SDS011;66902;41.720;44.796;2023-11-21T13:45:35;3.60;;;1.00;;
77733;SDS011;66902;41.720;44.796;2023-11-21T13:48:12;1.00;;;0.90;;
77733;SDS011;66902;41.720;44.796;2023-11-21T13:50:57;2.60;;;0.80;;
77733;SDS011;66902;41.720;44.796;2023-11-21T13:53:39;1.70;;;0.90;;
77733;SDS011;66902;41.720;44.796;2023-11-21T13:56:13;3.50;;;1.00;;
77733;SDS011;66902;41.720;44.796;2023-11-21T13:58:51;5.60;;;1.40;;
77733;SDS011;66902;41.720;44.796;2023-11-21T14:01:26;2.30;;;1.10;;
77733;SDS011;66902;41.720;44.796;2023-11-21T14:04:17;2.80;;;1.30;;
77733;SDS011;66902;41.720;44.796;2023-11-21T14:09:53;2.60;;;0.60;;
77733;SDS011;66902;41.720;44.796;2023-11-21T14:12:29;2.90;;;1.40;;
77733;SDS011;66902;41.720;44.796;2023-11-21T14:15:09;5.90;;;1.30;;
77733;SDS011;66902;41.720;44.796;2023-11-21T14:17:49;3.90;;;3.10;;
77733;SDS011;66902;41.720;44.796;2023-11-21T14:20:25;9.80;;;4.40;;
77733;SDS011;66902;41.720;44.796;2023-11-21T14:23:00;5.90;;;4.00;;
77733;SDS011;66902;41.720;44.796;2023-11-21T14:25:35;5.40;;;2.00;;
77733;SDS011;66902;41.720;44.796;2023-11-21T14:28:11;2.50;;;1.60;;
77733;SDS011;66902;41.720;44.796;2023-11-21T14:30:45;3.30;;;1.10;;
77733;SDS011;66902;41.720;44.796;2023-11-21T14:33:20;5.60;;;0.90;;
77733;SDS011;66902;41.720;44.796;2023-11-21T14:35:54;1.00;;;0.60;;
77733;SDS011;66902;41.720;44.796;2023-11-21T14:38:29;1.80;;;0.90;;
77733;SDS011;66902;41.720;44.796;2023-11-21T14:41:04;4.30;;;1.10;;
77733;SDS011;66902;41.720;44.796;2023-11-21T14:43:39;5.00;;;1.70;;
77733;SDS011;66902;41.720;44.796;2023-11-21T14:46:15;2.70;;;1.30;;
77733;SDS011;66902;41.720;44.796;2023-11-21T14:48:50;2.40;;;1.50;;
77733;SDS011;66902;41.720;44.796;2023-11-21T14:54:31;8.70;;;1.50;;
77733;SDS011;66902;41.720;44.796;2023-11-21T14:57:13;3.30;;;1.70;;
77733;SDS011;66902;41.720;44.796;2023-11-21T14:59:48;2.20;;;0.80;;
77733;SDS011;66902;41.720;44.796;2023-11-21T15:02:28;2.70;;;1.50;;
77733;SDS011;66902;41.720;44.796;2023-11-21T15:05:42;4.00;;;1.00;;
77733;SDS011;66902;41.720;44.796;2023-11-21T15:08:15;1.50;;;1.00;;
77733;SDS011;66902;41.720;44.796;2023-11-21T15:10:51;1.90;;;0.80;;
77733;SDS011;66902;41.720;44.796;2023-11-21T15:13:25;3.70;;;1.60;;
77733;SDS011;66902;41.720;44.796;2023-11-21T15:16:00;1.10;;;0.80;;
77733;SDS011;66902;41.720;44.796;2023-11-21T15:21:10;2.80;;;0.40;;
77733;SDS011;66902;41.720;44.796;2023-11-21T15:23:44;2.50;;;0.90;;
77733;SDS011;66902;41.720;44.796;2023-11-21T15:26:18;1.70;;;0.60;;
77733;SDS011;66902;41.720;44.796;2023-11-21T15:28:52;5.20;;;1.10;;
77733;SDS011;66902;41.720;44.796;2023-11-21T15:31:27;6.30;;;1.30;;
77733;SDS011;66902;41.720;44.796;2023-11-21T15:34:01;1.80;;;0.90;;